Time;durP1;ratioP1;P1;durP2;ratioP2;P2;SDS_P1;SDS_P2;PMS_P1;PMS_P2;Temp;Humidity;BMP_temperature;BMP_pressure;BME280_temperature;BME280_humidity;BME280_pressure;Samples;Min_cycle;Max_cycle;Signal;HPM_P1;HPM_P2
2021/08/20 00:02:13;;;;;;;1.80;1.52;;;;;;;;;;5033633;28;20161;-59
2021/08/20 00:04:39;;;;;;;3.13;1.40;;;;;;;;;;5033518;28;20256;-59
2021/08/20 00:07:05;;;;;;;3.20;1.40;;;;;;;;;;5033481;28;20170;-59
2021/08/20 00:09:31;;;;;;;4.00;1.45;;;;;;;;;;5033274;28;20197;-59
2021/08/20 00:11:57;;;;;;;3.17;1.60;;;;;;;;;;5033638;28;20176;-59
2021/08/20 00:14:23;;;;;;;2.70;1.45;;;;;;;;;;5033502;28;20166;-59
2021/08/20 00:16:49;;;;;;;3.83;1.63;;;;;;;;;;5033285;28;20174;-59
2021/08/20 00:19:15;;;;;;;1.95;1.40;;;;;;;;;;5033176;28;20268;-59
2021/08/20 00:21:41;;;;;;;1.88;1.35;;;;;;;;;;5033189;28;20490;-59
2021/08/20 00:24:07;;;;;;;2.83;1.70;;;;;;;;;;5033387;28;20212;-59
2021/08/20 00:26:33;;;;;;;3.45;1.60;;;;;;;;;;5033334;28;20222;-59
2021/08/20 00:28:59;;;;;;;3.30;1.40;;;;;;;;;;5033225;28;20501;-61
2021/08/20 00:31:25;;;;;;;3.05;1.40;;;;;;;;;;5033095;28;20166;-58
2021/08/20 00:33:51;;;;;;;2.70;1.58;;;;;;;;;;5032994;28;20237;-59
2021/08/20 00:36:17;;;;;;;2.67;1.63;;;;;;;;;;5032831;28;20169;-59
2021/08/20 00:38:43;;;;;;;3.50;1.48;;;;;;;;;;5032922;28;20539;-59
2021/08/20 00:41:10;;;;;;;5.55;1.65;;;;;;;;;;5032757;28;20228;-59
2021/08/20 00:43:36;;;;;;;2.55;1.50;;;;;;;;;;5032909;28;20701;-59
2021/08/20 00:46:02;;;;;;;2.80;1.40;;;;;;;;;;5032697;28;20260;-59
2021/08/20 00:48:28;;;;;;;3.17;1.48;;;;;;;;;;5032658;28;20614;-59
2021/08/20 00:51:09;;;;;;;3.28;1.42;;;;;;;;;;5032998;28;20236;-59
2021/08/20 00:53:36;;;;;;;5.00;1.20;;;;;;;;;;5032623;28;20556;-59
2021/08/20 00:56:03;;;;;;;1.98;1.17;;;;;;;;;;5032524;28;20613;-59
2021/08/20 00:58:30;;;;;;;3.08;1.63;;;;;;;;;;5032557;28;20546;-58
2021/08/20 01:00:56;;;;;;;3.78;1.67;;;;;;;;;;5032722;28;20177;-59
2021/08/20 01:03:23;;;;;;;3.55;1.48;;;;;;;;;;5032473;28;20227;-59
2021/08/20 01:05:52;;;;;;;3.88;1.50;;;;;;;;;;5032350;28;20165;-59
2021/08/20 01:08:19;;;;;;;3.97;1.70;;;;;;;;;;5032496;28;20169;-59
2021/08/20 01:10:45;;;;;;;2.88;1.50;;;;;;;;;;5032606;28;20189;-59
2021/08/20 01:13:11;;;;;;;3.22;1.20;;;;;;;;;;5036698;28;20165;-59
2021/08/20 01:15:37;;;;;;;2.67;1.10;;;;;;;;;;5036318;28;20203;-59
2021/08/20 01:18:03;;;;;;;2.92;1.40;;;;;;;;;;5036389;28;20165;-59
2021/08/20 01:20:29;;;;;;;2.60;1.52;;;;;;;;;;5036217;28;20177;-59
2021/08/20 01:22:54;;;;;;;2.95;1.30;;;;;;;;;;5036293;28;20173;-59
2021/08/20 01:25:21;;;;;;;2.63;1.40;;;;;;;;;;5036208;28;20491;-59
2021/08/20 01:27:47;;;;;;;3.45;1.20;;;;;;;;;;5036461;28;20180;-59
2021/08/20 01:30:13;;;;;;;2.28;1.42;;;;;;;;;;5036064;28;20194;-59
2021/08/20 01:32:39;;;;;;;3.38;1.50;;;;;;;;;;5036098;28;20161;-59
2021/08/20 01:35:05;;;;;;;3.03;1.33;;;;;;;;;;5036364;28;20632;-58
2021/08/20 01:37:31;;;;;;;3.08;1.25;;;;;;;;;;5035991;28;20669;-58
2021/08/20 01:39:57;;;;;;;3.17;1.50;;;;;;;;;;5036022;28;20253;-58
2021/08/20 01:42:23;;;;;;;2.58;1.60;;;;;;;;;;5034868;28;20169;-59
2021/08/20 01:44:49;;;;;;;3.20;1.38;;;;;;;;;;5035904;28;20176;-59
2021/08/20 01:47:15;;;;;;;3.88;1.65;;;;;;;;;;5035766;28;20624;-59
2021/08/20 01:49:41;;;;;;;2.83;1.52;;;;;;;;;;5035555;28;20209;-59
2021/08/20 01:52:07;;;;;;;2.42;1.50;;;;;;;;;;5035730;28;20161;-59
2021/08/20 01:54:33;;;;;;;3.50;1.70;;;;;;;;;;5035694;28;20170;-60
2021/08/20 01:56:59;;;;;;;5.03;1.30;;;;;;;;;;5035597;28;20161;-60
2021/08/20 01:59:25;;;;;;;4.32;1.70;;;;;;;;;;5035613;28;20606;-59
2021/08/20 02:01:51;;;;;;;3.55;1.77;;;;;;;;;;5035375;28;20174;-59
2021/08/20 02:04:17;;;;;;;4.95;1.58;;;;;;;;;;5035904;28;20166;-59
2021/08/20 02:06:43;;;;;;;4.00;1.80;;;;;;;;;;5035544;28;20169;-59
2021/08/20 02:09:09;;;;;;;4.82;1.63;;;;;;;;;;5035733;28;20269;-59
2021/08/20 02:11:35;;;;;;;5.95;1.70;;;;;;;;;;5035497;28;20200;-59
2021/08/20 02:14:01;;;;;;;3.38;1.70;;;;;;;;;;5035564;28;20279;-59
2021/08/20 02:16:27;;;;;;;5.07;2.05;;;;;;;;;;5035346;28;20385;-59
2021/08/20 02:18:52;;;;;;;4.32;1.75;;;;;;;;;;5035419;28;20172;-59
2021/08/20 02:21:18;;;;;;;3.78;1.95;;;;;;;;;;5035357;28;20219;-59
2021/08/20 02:23:44;;;;;;;2.92;2.03;;;;;;;;;;5035030;28;20180;-59
2021/08/20 02:26:10;;;;;;;4.22;1.83;;;;;;;;;;5035596;28;20170;-59
2021/08/20 02:28:36;;;;;;;2.95;2.00;;;;;;;;;;5035684;28;20664;-60
2021/08/20 02:31:02;;;;;;;4.93;1.90;;;;;;;;;;5035300;28;20205;-59
2021/08/20 02:33:28;;;;;;;4.50;2.00;;;;;;;;;;5035593;28;20166;-59
2021/08/20 02:35:54;;;;;;;4.60;2.20;;;;;;;;;;5035492;28;20165;-59
2021/08/20 02:38:20;;;;;;;6.47;2.50;;;;;;;;;;5035575;28;20170;-59
2021/08/20 02:40:46;;;;;;;5.40;2.80;;;;;;;;;;5035496;28;20265;-59
2021/08/20 02:43:12;;;;;;;7.22;3.10;;;;;;;;;;5035351;28;20256;-58
2021/08/20 02:45:37;;;;;;;4.22;2.50;;;;;;;;;;5035427;28;20173;-59
2021/08/20 02:48:04;;;;;;;3.80;2.15;;;;;;;;;;5035265;28;20170;-59
2021/08/20 02:50:29;;;;;;;2.78;2.17;;;;;;;;;;5034172;28;20594;-58
2021/08/20 02:52:55;;;;;;;4.28;2.30;;;;;;;;;;5035396;28;20165;-58
2021/08/20 02:55:21;;;;;;;3.50;2.45;;;;;;;;;;5035438;28;20189;-58
2021/08/20 02:57:47;;;;;;;5.80;2.40;;;;;;;;;;5034976;28;20516;-59
2021/08/20 03:00:13;;;;;;;4.40;2.20;;;;;;;;;;5034920;28;20166;-59
2021/08/20 03:02:39;;;;;;;4.03;2.55;;;;;;;;;;5035052;28;20201;-59
2021/08/20 03:05:06;;;;;;;8.18;2.42;;;;;;;;;;5034854;28;20587;-59
2021/08/20 03:07:32;;;;;;;6.00;2.45;;;;;;;;;;5034713;28;20180;-59
2021/08/20 03:09:57;;;;;;;7.53;2.55;;;;;;;;;;5034751;28;20201;-59
2021/08/20 03:12:24;;;;;;;6.70;2.65;;;;;;;;;;5034669;28;20166;-59
2021/08/20 03:14:51;;;;;;;5.45;2.70;;;;;;;;;;5034636;28;20158;-59
2021/08/20 03:17:17;;;;;;;4.00;2.53;;;;;;;;;;5034450;28;20158;-59
2021/08/20 03:19:43;;;;;;;3.92;2.22;;;;;;;;;;5034418;28;20181;-59
2021/08/20 03:22:09;;;;;;;6.22;2.58;;;;;;;;;;5034247;28;20183;-59
2021/08/20 03:24:35;;;;;;;8.18;2.70;;;;;;;;;;5034516;28;20543;-59
2021/08/20 03:27:01;;;;;;;6.15;2.80;;;;;;;;;;5034180;28;20730;-59
2021/08/20 03:29:26;;;;;;;6.85;3.25;;;;;;;;;;5034096;28;20185;-59
2021/08/20 03:31:52;;;;;;;7.90;2.70;;;;;;;;;;5033982;28;20170;-58
2021/08/20 03:34:18;;;;;;;3.90;2.90;;;;;;;;;;5033322;28;20380;-58
2021/08/20 03:36:44;;;;;;;5.70;3.00;;;;;;;;;;5033993;28;20166;-58
2021/08/20 03:39:10;;;;;;;7.57;3.42;;;;;;;;;;5033965;28;20165;-59
2021/08/20 03:41:36;;;;;;;6.28;3.00;;;;;;;;;;5033809;28;20166;-58
2021/08/20 03:44:02;;;;;;;4.82;2.70;;;;;;;;;;5033896;28;20248;-58
2021/08/20 03:46:28;;;;;;;6.95;2.90;;;;;;;;;;5033976;28;20530;-58
2021/08/20 03:48:54;;;;;;;6.78;2.78;;;;;;;;;;5033758;28;20208;-59
2021/08/20 03:51:20;;;;;;;5.22;2.95;;;;;;;;;;5033886;28;20967;-59
2021/08/20 03:53:46;;;;;;;4.70;2.90;;;;;;;;;;5033513;28;20444;-59
2021/08/20 03:56:12;;;;;;;6.60;3.67;;;;;;;;;;5033858;28;20227;-59
2021/08/20 03:58:37;;;;;;;7.22;3.38;;;;;;;;;;5033465;28;20170;-59
2021/08/20 04:01:07;;;;;;;6.60;3.28;;;;;;;;;;5033439;28;20599;-59
2021/08/20 04:03:32;;;;;;;5.80;2.80;;;;;;;;;;5033449;28;20606;-59
2021/08/20 04:05:58;;;;;;;4.63;2.53;;;;;;;;;;5033364;28;20170;-59
2021/08/20 04:08:24;;;;;;;6.55;3.35;;;;;;;;;;5033203;28;20197;-59
2021/08/20 04:10:50;;;;;;;7.45;3.03;;;;;;;;;;5033199;28;20252;-59
2021/08/20 04:13:17;;;;;;;6.57;2.85;;;;;;;;;;5033133;28;20232;-58
2021/08/20 04:15:43;;;;;;;7.38;3.33;;;;;;;;;;5033184;28;20230;-58
2021/08/20 04:18:09;;;;;;;4.25;2.95;;;;;;;;;;5033340;28;20181;-59
2021/08/20 04:20:35;;;;;;;7.32;3.28;;;;;;;;;;5033148;28;20219;-58
2021/08/20 04:23:01;;;;;;;7.25;3.10;;;;;;;;;;5033245;28;20165;-58
2021/08/20 04:25:28;;;;;;;4.15;2.70;;;;;;;;;;5033049;28;20180;-59
2021/08/20 04:27:54;;;;;;;7.72;2.80;;;;;;;;;;5032828;28;20538;-58
2021/08/20 04:30:21;;;;;;;8.20;2.70;;;;;;;;;;5032783;28;20189;-58
2021/08/20 04:32:46;;;;;;;5.43;2.40;;;;;;;;;;5033050;28;20158;-58
2021/08/20 04:35:13;;;;;;;7.68;2.80;;;;;;;;;;5032748;28;20180;-58
2021/08/20 04:37:39;;;;;;;4.88;2.58;;;;;;;;;;5032582;28;20169;-58
2021/08/20 04:40:05;;;;;;;5.30;3.03;;;;;;;;;;5032721;28;20618;-58
2021/08/20 04:42:31;;;;;;;6.15;2.88;;;;;;;;;;5032624;28;20188;-58
2021/08/20 04:44:57;;;;;;;3.92;2.88;;;;;;;;;;5032568;28;20173;-58
2021/08/20 04:47:23;;;;;;;6.95;2.80;;;;;;;;;;5032626;28;20169;-58
2021/08/20 04:49:49;;;;;;;5.65;2.40;;;;;;;;;;5032353;28;20209;-58
2021/08/20 04:52:15;;;;;;;3.80;2.10;;;;;;;;;;5032621;28;20549;-58
2021/08/20 04:54:44;;;;;;;5.18;2.45;;;;;;;;;;5032848;28;20199;-58
2021/08/20 04:57:10;;;;;;;4.80;2.40;;;;;;;;;;5032862;28;20173;-58
2021/08/20 04:59:36;;;;;;;6.90;2.83;;;;;;;;;;5032774;28;20557;-58
2021/08/20 05:02:03;;;;;;;4.80;2.65;;;;;;;;;;5032574;28;20613;-58
2021/08/20 05:04:31;;;;;;;4.15;2.80;;;;;;;;;;5032521;28;20264;-58
2021/08/20 05:06:57;;;;;;;7.70;2.80;;;;;;;;;;5032935;28;20177;-59
2021/08/20 05:09:23;;;;;;;4.50;2.65;;;;;;;;;;5032388;28;20615;-59
2021/08/20 05:11:49;;;;;;;3.22;2.47;;;;;;;;;;5032573;28;20181;-59
2021/08/20 05:14:15;;;;;;;6.68;2.58;;;;;;;;;;5032603;28;20169;-59
2021/08/20 05:16:41;;;;;;;4.38;2.50;;;;;;;;;;5032756;28;20166;-58
2021/08/20 05:19:07;;;;;;;3.83;2.50;;;;;;;;;;5032606;28;20192;-59
2021/08/20 05:21:33;;;;;;;6.38;2.75;;;;;;;;;;5032456;28;20593;-61
2021/08/20 05:23:59;;;;;;;5.47;2.53;;;;;;;;;;5032416;28;20613;-61
2021/08/20 05:26:25;;;;;;;4.40;2.65;;;;;;;;;;5032761;28;20192;-61
2021/08/20 05:28:52;;;;;;;4.38;2.95;;;;;;;;;;5032556;28;20170;-61
2021/08/20 05:31:18;;;;;;;5.82;2.67;;;;;;;;;;5032525;28;20193;-61
2021/08/20 05:33:44;;;;;;;7.72;3.03;;;;;;;;;;5032180;28;20617;-61
2021/08/20 05:36:10;;;;;;;6.30;2.90;;;;;;;;;;5032281;28;20200;-61
2021/08/20 05:38:36;;;;;;;4.03;2.90;;;;;;;;;;5032315;28;20222;-61
2021/08/20 05:41:01;;;;;;;4.88;2.78;;;;;;;;;;5032633;28;20192;-61
2021/08/20 05:43:30;;;;;;;4.68;2.78;;;;;;;;;;5032270;28;20181;-61
2021/08/20 05:45:56;;;;;;;5.97;2.92;;;;;;;;;;5032611;28;20184;-63
2021/08/20 05:48:22;;;;;;;4.55;2.85;;;;;;;;;;5032271;28;20613;-62
2021/08/20 05:50:48;;;;;;;7.55;3.70;;;;;;;;;;5032046;28;20215;-62
2021/08/20 05:53:14;;;;;;;3.72;2.88;;;;;;;;;;5032158;28;20180;-62
2021/08/20 05:55:40;;;;;;;5.30;3.35;;;;;;;;;;5032131;28;20617;-62
2021/08/20 05:58:06;;;;;;;3.70;2.42;;;;;;;;;;5034672;28;20160;-62
2021/08/20 06:00:33;;;;;;;6.57;3.05;;;;;;;;;;5036053;28;20173;-62
2021/08/20 06:02:59;;;;;;;4.28;2.40;;;;;;;;;;5035617;28;20166;-62
2021/08/20 06:05:24;;;;;;;5.93;2.50;;;;;;;;;;5035533;28;20512;-62
2021/08/20 06:07:50;;;;;;;5.10;2.47;;;;;;;;;;5035637;28;20192;-62
2021/08/20 06:10:18;;;;;;;4.47;2.38;;;;;;;;;;5035501;28;20200;-62
2021/08/20 06:12:44;;;;;;;4.82;2.33;;;;;;;;;;5036114;28;20169;-62
2021/08/20 06:15:10;;;;;;;3.92;2.38;;;;;;;;;;5035819;28;20169;-61
2021/08/20 06:17:36;;;;;;;3.92;2.20;;;;;;;;;;5035816;28;20169;-61
2021/08/20 06:20:02;;;;;;;4.75;2.40;;;;;;;;;;5035672;28;20176;-62
2021/08/20 06:22:28;;;;;;;3.03;2.05;;;;;;;;;;5035454;28;20605;-62
2021/08/20 06:24:54;;;;;;;4.03;2.15;;;;;;;;;;5035253;28;20173;-61
2021/08/20 06:27:20;;;;;;;5.97;2.20;;;;;;;;;;5035270;28;20165;-62
2021/08/20 06:29:46;;;;;;;5.00;2.38;;;;;;;;;;5035202;28;20193;-62
2021/08/20 06:32:12;;;;;;;4.47;2.55;;;;;;;;;;5035336;28;20180;-62
2021/08/20 06:34:38;;;;;;;4.45;2.28;;;;;;;;;;5035145;28;20504;-62
2021/08/20 06:37:04;;;;;;;3.15;2.03;;;;;;;;;;5035066;28;20172;-62
2021/08/20 06:39:30;;;;;;;4.05;2.20;;;;;;;;;;5035114;28;20208;-62
2021/08/20 06:41:56;;;;;;;6.05;2.65;;;;;;;;;;5035124;28;20173;-62
2021/08/20 06:44:22;;;;;;;2.72;2.17;;;;;;;;;;5035269;28;20184;-62
2021/08/20 06:46:48;;;;;;;3.20;2.30;;;;;;;;;;5035356;28;20169;-62
2021/08/20 06:49:14;;;;;;;3.58;2.03;;;;;;;;;;5034752;28;20187;-62
2021/08/20 06:51:40;;;;;;;4.63;2.22;;;;;;;;;;5035332;28;20157;-62
2021/08/20 06:54:06;;;;;;;4.15;1.90;;;;;;;;;;5034912;28;20165;-62
2021/08/20 06:56:32;;;;;;;4.10;2.10;;;;;;;;;;5034902;28;20195;-61
2021/08/20 06:58:58;;;;;;;3.30;2.20;;;;;;;;;;5034646;28;20169;-61
2021/08/20 07:01:25;;;;;;;5.00;1.85;;;;;;;;;;5034737;28;20169;-62
2021/08/20 07:03:51;;;;;;;3.05;2.05;;;;;;;;;;5034896;28;20169;-62
2021/08/20 07:06:24;;;;;;;2.40;1.70;;;;;;;;;;5034646;28;20172;-64
2021/08/20 07:08:50;;;;;;;4.30;1.70;;;;;;;;;;5034452;28;20173;-61
2021/08/20 07:11:16;;;;;;;5.60;2.03;;;;;;;;;;5034458;28;20188;-61
2021/08/20 07:13:43;;;;;;;4.00;1.80;;;;;;;;;;5034684;28;20165;-61
2021/08/20 07:16:09;;;;;;;3.28;1.73;;;;;;;;;;5034722;28;20158;-61
2021/08/20 07:18:34;;;;;;;3.03;1.98;;;;;;;;;;5164997;23;20204;31
2021/08/20 07:21:00;;;;;;;3.28;2.10;;;;;;;;;;5799780;23;20210;31
2021/08/20 07:27:18;;;;;;;3.35;1.80;;;;;;;;;;6345838;22;20531;31
2021/08/20 07:43:27;;;;;;;3.83;2.22;;;;;;;;;;6165575;22;20202;31
2021/08/20 07:48:23;;;;;;;2.95;1.88;;;;;;;;;;6345351;22;20536;31
2021/08/20 07:53:17;;;;;;;2.67;1.60;;;;;;;;;;6338915;22;76175;31
2021/08/20 07:55:43;;;;;;;2.90;1.80;;;;;;;;;;6342881;22;20184;31
2021/08/20 07:58:08;;;;;;;5.07;1.95;;;;;;;;;;6341721;22;20222;31
2021/08/20 08:23:45;;;;;;;2.05;1.45;;;;;;;;;;6286450;22;20184;31
2021/08/20 08:26:11;;;;;;;2.40;1.60;;;;;;;;;;6272901;22;312078;31
2021/08/20 08:40:46;;;;;;;3.05;1.25;;;;;;;;;;6285126;22;20212;31
2021/08/20 09:08:18;;;;;;;3.15;1.42;;;;;;;;;;6258466;22;20538;31
2021/08/20 09:15:09;;;;;;;5.40;1.17;;;;;;;;;;6257444;22;20682;-64
2021/08/20 09:22:08;;;;;;;2.13;1.35;;;;;;;;;;6289377;22;20535;31
2021/08/20 09:51:54;;;;;;;3.20;1.35;;;;;;;;;;6179667;22;20563;31
2021/08/20 09:56:34;;;;;;;2.85;1.35;;;;;;;;;;6204982;22;20513;31
2021/08/20 10:03:06;;;;;;;2.85;1.50;;;;;;;;;;6168034;22;20521;31
2021/08/20 10:12:24;;;;;;;2.30;1.70;;;;;;;;;;6226644;22;20197;31
2021/08/20 10:17:11;;;;;;;3.17;1.45;;;;;;;;;;6291438;22;21438;-59
2021/08/20 10:26:16;;;;;;;2.67;1.70;;;;;;;;;;6319053;22;20202;31
2021/08/20 10:30:24;;;;;;;2.00;1.52;;;;;;;;;;6229002;22;20526;31
2021/08/20 10:37:02;;;;;;;2.88;1.50;;;;;;;;;;6229676;22;20523;31
2021/08/20 10:39:28;;;;;;;3.40;1.75;;;;;;;;;;6196051;22;20186;31
2021/08/20 10:58:06;;;;;;;1.77;1.35;;;;;;;;;;6290806;22;21760;-60
2021/08/20 11:07:18;;;;;;;3.25;1.80;;;;;;;;;;6196244;22;20198;31
2021/08/20 11:14:05;;;;;;;2.35;1.65;;;;;;;;;;6225916;22;20201;31
2021/08/20 11:28:42;;;;;;;3.22;2.38;;;;;;;;;;6313630;22;20203;-62
2021/08/20 11:31:09;;;;;;;3.28;1.80;;;;;;;;;;6316447;22;20148;-62
2021/08/20 11:33:36;;;;;;;3.63;2.40;;;;;;;;;;6315814;22;20149;-62
2021/08/20 11:36:04;;;;;;;2.95;2.10;;;;;;;;;;6316352;22;20149;-62
2021/08/20 11:38:34;;;;;;;3.30;2.25;;;;;;;;;;6315971;22;20138;-62
2021/08/20 11:41:05;;;;;;;2.00;1.67;;;;;;;;;;6316377;22;20160;-62
2021/08/20 11:43:32;;;;;;;3.28;1.80;;;;;;;;;;6316082;22;20142;-62
2021/08/20 11:45:59;;;;;;;3.40;1.85;;;;;;;;;;6316187;22;20416;-62
2021/08/20 11:48:25;;;;;;;3.05;1.92;;;;;;;;;;6316095;22;20195;-62
2021/08/20 11:50:51;;;;;;;2.75;1.65;;;;;;;;;;6316181;22;20441;-62
2021/08/20 11:53:21;;;;;;;3.33;2.17;;;;;;;;;;6315780;22;20134;-62
2021/08/20 11:55:47;;;;;;;2.08;1.67;;;;;;;;;;6315958;22;20446;-61
2021/08/20 11:58:29;;;;;;;3.00;1.88;;;;;;;;;;6315641;22;20224;-62
2021/08/20 12:00:55;;;;;;;3.22;1.88;;;;;;;;;;6316175;22;20146;-62
2021/08/20 12:03:21;;;;;;;2.97;1.80;;;;;;;;;;6315600;22;20210;-62
2021/08/20 12:05:47;;;;;;;3.22;2.10;;;;;;;;;;6315479;22;20531;-62
2021/08/20 12:08:19;;;;;;;3.00;2.00;;;;;;;;;;6315521;22;20217;-62
2021/08/20 12:10:49;;;;;;;2.53;1.80;;;;;;;;;;6315710;22;20138;-62
2021/08/20 12:13:15;;;;;;;2.42;2.22;;;;;;;;;;6315610;22;20132;-62
2021/08/20 12:15:41;;;;;;;2.88;2.38;;;;;;;;;;6315665;22;20199;-62
2021/08/20 12:18:26;;;;;;;3.55;2.50;;;;;;;;;;6315523;22;20153;-62
2021/08/20 12:20:53;;;;;;;2.95;2.65;;;;;;;;;;6316030;22;20142;-62
2021/08/20 12:23:19;;;;;;;2.60;2.40;;;;;;;;;;6315682;22;20244;-62
2021/08/20 12:25:46;;;;;;;2.60;2.40;;;;;;;;;;6315640;22;20162;-62
2021/08/20 12:28:13;;;;;;;2.45;2.20;;;;;;;;;;6322219;22;20543;-62
2021/08/20 12:30:39;;;;;;;2.72;2.28;;;;;;;;;;6347193;22;20117;-62
2021/08/20 12:33:05;;;;;;;2.17;1.95;;;;;;;;;;6346976;22;20160;-61
2021/08/20 12:35:31;;;;;;;2.85;2.30;;;;;;;;;;6345327;22;20149;-61
2021/08/20 12:38:00;;;;;;;2.42;1.83;;;;;;;;;;6340206;22;20239;-61
2021/08/20 12:40:37;;;;;;;2.72;2.47;;;;;;;;;;6339906;22;20501;-61
2021/08/20 12:43:03;;;;;;;2.55;2.35;;;;;;;;;;6339885;22;20141;-61
2021/08/20 12:45:29;;;;;;;3.53;1.92;;;;;;;;;;6340311;22;20169;-61
2021/08/20 12:48:05;;;;;;;2.65;2.40;;;;;;;;;;6340223;22;20137;-61
2021/08/20 12:50:32;;;;;;;2.53;2.30;;;;;;;;;;6340572;22;20168;-61
2021/08/20 12:53:09;;;;;;;3.40;2.50;;;;;;;;;;6340139;22;20152;-61
2021/08/20 12:55:38;;;;;;;2.92;2.60;;;;;;;;;;6340573;22;20228;-61
2021/08/20 12:58:04;;;;;;;5.25;2.50;;;;;;;;;;6340087;22;20207;-61
2021/08/20 13:00:34;;;;;;;4.13;2.90;;;;;;;;;;6340029;22;20141;-61
2021/08/20 13:03:01;;;;;;;3.80;3.00;;;;;;;;;;6340158;22;20166;-62
2021/08/20 13:05:27;;;;;;;3.50;2.60;;;;;;;;;;6339865;22;20658;-61
2021/08/20 13:07:53;;;;;;;4.07;2.90;;;;;;;;;;6339708;22;20562;-60
2021/08/20 13:10:19;;;;;;;4.28;2.65;;;;;;;;;;6339876;22;20140;-61
2021/08/20 13:12:46;;;;;;;4.35;2.70;;;;;;;;;;6312676;22;20142;-62
2021/08/20 13:15:12;;;;;;;5.63;2.92;;;;;;;;;;6339678;22;20649;-62
2021/08/20 13:17:39;;;;;;;4.43;2.70;;;;;;;;;;6339670;22;20198;-61
2021/08/20 13:20:05;;;;;;;3.15;2.83;;;;;;;;;;6339878;22;20157;-61
2021/08/20 13:22:31;;;;;;;2.65;2.45;;;;;;;;;;6339943;22;20155;-61
2021/08/20 13:24:57;;;;;;;2.78;2.58;;;;;;;;;;6339540;22;20465;-61
2021/08/20 13:27:23;;;;;;;4.55;2.50;;;;;;;;;;6312074;22;20421;-61
2021/08/20 13:29:49;;;;;;;3.00;2.70;;;;;;;;;;6339362;22;20236;-61
2021/08/20 13:32:15;;;;;;;2.75;2.50;;;;;;;;;;6339480;22;20169;-61
2021/08/20 13:34:41;;;;;;;2.47;2.28;;;;;;;;;;6339312;22;20220;-61
2021/08/20 13:37:07;;;;;;;2.50;2.30;;;;;;;;;;6339766;22;20599;-61
2021/08/20 13:39:33;;;;;;;2.30;2.10;;;;;;;;;;6339570;22;20144;-63
2021/08/20 13:41:59;;;;;;;3.80;2.65;;;;;;;;;;6339256;22;20573;-62
2021/08/20 13:44:25;;;;;;;2.92;2.55;;;;;;;;;;6339108;22;20165;-61
2021/08/20 13:46:52;;;;;;;2.53;2.33;;;;;;;;;;6339137;22;20417;-61
2021/08/20 13:49:18;;;;;;;1.90;1.77;;;;;;;;;;6339121;22;20137;-62
2021/08/20 13:51:44;;;;;;;3.80;2.30;;;;;;;;;;6339333;22;20424;-62
2021/08/20 13:54:10;;;;;;;4.65;2.10;;;;;;;;;;6339078;22;20340;-62
2021/08/20 13:56:36;;;;;;;3.08;2.30;;;;;;;;;;6339483;22;20375;-60
2021/08/20 13:59:03;;;;;;;3.80;2.58;;;;;;;;;;6338934;22;20149;-62
2021/08/20 14:01:29;;;;;;;3.03;2.15;;;;;;;;;;6339475;22;20146;-62
2021/08/20 14:03:56;;;;;;;3.78;2.50;;;;;;;;;;6339036;22;20470;-63
2021/08/20 14:06:21;;;;;;;3.30;2.50;;;;;;;;;;6339144;22;20506;-62
2021/08/20 14:08:47;;;;;;;2.85;2.40;;;;;;;;;;6338952;22;20142;-61
2021/08/20 14:11:13;;;;;;;3.25;2.40;;;;;;;;;;6339024;22;20528;-61
2021/08/20 14:13:39;;;;;;;2.83;2.10;;;;;;;;;;6339290;22;20138;-61
2021/08/20 14:16:05;;;;;;;3.70;2.60;;;;;;;;;;6338908;22;20311;-61
2021/08/20 14:18:31;;;;;;;3.05;1.88;;;;;;;;;;6338830;22;20186;-61
2021/08/20 14:20:57;;;;;;;2.45;2.10;;;;;;;;;;6304732;22;20414;-60
2021/08/20 14:23:23;;;;;;;4.38;2.25;;;;;;;;;;6307582;22;20161;-61
2021/08/20 14:25:49;;;;;;;3.38;2.55;;;;;;;;;;6307632;22;20465;-60
2021/08/20 14:28:15;;;;;;;4.45;2.40;;;;;;;;;;6307796;22;20150;-61
2021/08/20 14:30:42;;;;;;;5.38;2.78;;;;;;;;;;6307296;22;20227;-61
2021/08/20 14:33:08;;;;;;;4.63;2.50;;;;;;;;;;6307384;22;20191;-61
2021/08/20 14:35:34;;;;;;;4.30;2.47;;;;;;;;;;6307758;22;20462;-60
2021/08/20 14:38:03;;;;;;;3.60;2.42;;;;;;;;;;6307380;22;20142;-60
2021/08/20 14:40:29;;;;;;;5.25;2.45;;;;;;;;;;6307601;22;20196;-61
2021/08/20 14:42:54;;;;;;;4.32;2.58;;;;;;;;;;6307619;22;20150;-60
2021/08/20 14:45:20;;;;;;;3.53;2.50;;;;;;;;;;6307035;22;20177;-60
2021/08/20 14:47:46;;;;;;;3.00;2.75;;;;;;;;;;6307552;22;20244;-60
2021/08/20 14:50:12;;;;;;;3.95;2.97;;;;;;;;;;6306912;22;20562;-61
2021/08/20 14:52:39;;;;;;;4.50;2.97;;;;;;;;;;6306945;22;20139;-60
2021/08/20 14:55:06;;;;;;;3.67;3.00;;;;;;;;;;6307328;22;20142;-61
2021/08/20 14:57:33;;;;;;;4.53;2.83;;;;;;;;;;6307345;22;20153;-61
2021/08/20 14:59:59;;;;;;;4.78;3.10;;;;;;;;;;6306890;22;20142;-64
2021/08/20 15:02:26;;;;;;;4.05;2.75;;;;;;;;;;6306934;22;20165;-61
2021/08/20 15:04:52;;;;;;;3.88;2.53;;;;;;;;;;6307088;22;20192;-61
2021/08/20 15:07:18;;;;;;;4.57;2.78;;;;;;;;;;6307017;22;20138;-61
2021/08/20 15:09:44;;;;;;;3.58;2.30;;;;;;;;;;6307166;22;20145;-61
2021/08/20 15:12:10;;;;;;;5.65;2.97;;;;;;;;;;6306941;22;20481;-61
2021/08/20 15:14:36;;;;;;;4.28;2.50;;;;;;;;;;6306755;22;20150;-61
2021/08/20 15:17:02;;;;;;;3.25;2.42;;;;;;;;;;6307278;22;20138;-61
2021/08/20 15:19:35;;;;;;;2.55;2.33;;;;;;;;;;6307098;22;20233;-61
2021/08/20 15:22:01;;;;;;;3.20;2.72;;;;;;;;;;6324654;22;20157;-61
2021/08/20 15:24:27;;;;;;;4.78;2.58;;;;;;;;;;6338352;22;20176;-61
2021/08/20 15:26:53;;;;;;;4.93;3.08;;;;;;;;;;6338557;22;20535;-61
2021/08/20 15:29:19;;;;;;;4.68;2.45;;;;;;;;;;6338230;22;20138;-60
2021/08/20 15:31:45;;;;;;;3.53;2.53;;;;;;;;;;6338476;22;20180;-61
2021/08/20 15:34:11;;;;;;;5.72;3.22;;;;;;;;;;6338218;22;20207;-61
2021/08/20 15:36:37;;;;;;;5.00;3.20;;;;;;;;;;6338130;22;20615;-60
2021/08/20 15:39:03;;;;;;;4.32;3.05;;;;;;;;;;6338313;22;20216;-60
2021/08/20 15:41:29;;;;;;;4.43;3.10;;;;;;;;;;6338124;22;20137;-60
2021/08/20 15:43:55;;;;;;;4.43;3.63;;;;;;;;;;6338208;22;20484;-60
2021/08/20 15:46:21;;;;;;;4.20;3.30;;;;;;;;;;6338581;22;20263;-61
2021/08/20 15:48:47;;;;;;;4.53;4.03;;;;;;;;;;6338677;22;20156;-61
2021/08/20 15:51:13;;;;;;;6.30;4.00;;;;;;;;;;6338576;22;20221;-61
2021/08/20 15:53:40;;;;;;;4.53;3.58;;;;;;;;;;6338741;22;20188;-61
2021/08/20 15:56:06;;;;;;;6.22;3.75;;;;;;;;;;6338405;22;20486;-60
2021/08/20 15:58:32;;;;;;;6.40;3.97;;;;;;;;;;6338497;22;20206;-60
2021/08/20 16:00:59;;;;;;;4.85;3.78;;;;;;;;;;6338545;22;20142;-60
2021/08/20 16:03:25;;;;;;;6.95;4.00;;;;;;;;;;6338740;22;20619;-61
2021/08/20 16:05:51;;;;;;;6.93;4.00;;;;;;;;;;6338511;22;20166;-61
2021/08/20 16:08:17;;;;;;;5.63;3.80;;;;;;;;;;6338638;22;20148;-61
2021/08/20 16:10:43;;;;;;;6.43;4.13;;;;;;;;;;6338813;22;20134;-61
2021/08/20 16:13:09;;;;;;;7.35;4.13;;;;;;;;;;6340919;22;20138;-61
2021/08/20 16:15:35;;;;;;;5.95;4.38;;;;;;;;;;6340472;22;20138;-61
2021/08/20 16:26:59;;;;;;;6.20;3.53;;;;;;;;;;6256198;22;20216;31
2021/08/20 16:35:11;;;;;;;5.40;3.47;;;;;;;;;;6130875;23;20207;31
2021/08/20 16:39:57;;;;;;;4.72;3.70;;;;;;;;;;6259034;22;21286;31
2021/08/20 17:14:57;;;;;;;3.40;2.85;;;;;;;;;;6256940;22;21599;31
2021/08/20 17:24:59;;;;;;;4.32;2.90;;;;;;;;;;6317402;22;20214;31
2021/08/20 17:29:43;;;;;;;3.58;2.92;;;;;;;;;;6345855;22;20510;-60
2021/08/20 17:36:36;;;;;;;4.90;2.97;;;;;;;;;;6259234;22;20586;31
2021/08/20 17:56:37;;;;;;;5.05;2.78;;;;;;;;;;6289604;22;20514;31
2021/08/20 18:05:40;;;;;;;5.03;3.63;;;;;;;;;;6194261;22;20222;31
2021/08/20 18:12:33;;;;;;;7.13;4.70;;;;;;;;;;6262473;22;20204;31
2021/08/20 18:16:43;;;;;;;4.95;3.92;;;;;;;;;;6228179;22;23039;31
2021/08/20 18:25:52;;;;;;;4.82;3.30;;;;;;;;;;6307279;22;20205;31
2021/08/20 18:30:07;;;;;;;5.47;3.47;;;;;;;;;;6259404;22;20547;31
2021/08/20 18:37:04;;;;;;;6.28;4.10;;;;;;;;;;6260281;22;21282;31
2021/08/20 18:53:01;;;;;;;6.40;4.57;;;;;;;;;;6226258;22;20204;31
2021/08/20 19:00:11;;;;;;;6.72;4.80;;;;;;;;;;6286126;22;20196;31
2021/08/20 19:07:28;;;;;;;5.75;4.35;;;;;;;;;;6286987;22;20193;31
2021/08/20 19:18:06;;;;;;;7.35;5.38;;;;;;;;;;6289877;22;21596;31
2021/08/20 19:34:14;;;;;;;9.35;5.25;;;;;;;;;;6286025;22;20203;31
2021/08/20 19:55:04;;;;;;;8.65;5.97;;;;;;;;;;6343663;22;20186;-60
2021/08/20 20:02:08;;;;;;;12.02;6.47;;;;;;;;;;6258113;22;20203;31
2021/08/20 20:09:14;;;;;;;9.23;5.78;;;;;;;;;;6257841;22;20204;31
2021/08/20 20:13:20;;;;;;;10.80;6.18;;;;;;;;;;6167955;22;20522;-59
2021/08/20 20:33:33;;;;;;;10.60;6.85;;;;;;;;;;6290001;22;20511;31
2021/08/20 20:40:36;;;;;;;10.45;6.78;;;;;;;;;;6322009;22;20929;31
2021/08/20 20:54:33;;;;;;;10.63;6.65;;;;;;;;;;6346365;22;20536;31
2021/08/20 21:03:50;;;;;;;9.15;6.13;;;;;;;;;;6287804;22;20580;31
2021/08/20 21:10:58;;;;;;;9.55;6.53;;;;;;;;;;6256363;22;20205;31
2021/08/20 21:17:31;;;;;;;8.30;6.38;;;;;;;;;;6194919;22;20624;31
2021/08/20 21:24:08;;;;;;;9.82;6.85;;;;;;;;;;6194581;22;20206;31
2021/08/20 21:37:59;;;;;;;8.70;6.28;;;;;;;;;;6223964;22;20202;31
2021/08/20 21:49:32;;;;;;;9.88;6.35;;;;;;;;;;6289564;22;20536;31
2021/08/20 22:12:39;;;;;;;11.40;6.85;;;;;;;;;;6171467;23;20211;31
2021/08/20 22:16:58;;;;;;;8.40;6.20;;;;;;;;;;6258251;22;20560;31
2021/08/20 22:26:34;;;;;;;9.48;6.20;;;;;;;;;;6172039;23;20207;31
2021/08/20 22:58:40;;;;;;;12.43;6.45;;;;;;;;;;6318759;22;22484;31
2021/08/20 23:08:34;;;;;;;9.52;6.13;;;;;;;;;;6287156;22;20203;31
2021/08/20 23:13:20;;;;;;;10.20;6.82;;;;;;;;;;6320582;22;20509;31